createdAt,value
2018-12-04T00:00:55.575Z,956.14
2018-12-04T00:01:55.551Z,956.11
2018-12-04T00:02:55.498Z,956.11
2018-12-04T00:03:55.412Z,956.07
2018-12-04T00:04:55.361Z,956.07
2018-12-04T00:05:55.308Z,956.12
2018-12-04T00:06:55.257Z,956.01
2018-12-04T00:07:55.232Z,956.08
2018-12-04T00:08:55.152Z,956.16
2018-12-04T00:09:55.099Z,956.10
2018-12-04T00:10:55.045Z,956.13
2018-12-04T00:11:55.028Z,956.11
2018-12-04T00:12:54.941Z,956.10
2018-12-04T00:13:54.885Z,956.17
2018-12-04T00:14:54.830Z,956.20
2018-12-04T00:15:54.779Z,956.10
2018-12-04T00:16:54.754Z,956.10
2018-12-04T00:17:54.671Z,956.14
2018-12-04T00:18:54.653Z,956.11
2018-12-04T00:19:54.564Z,956.18
2018-12-04T00:20:54.512Z,956.13
2018-12-04T00:21:54.455Z,956.20
2018-12-04T00:22:54.404Z,956.16
2018-12-04T00:23:54.383Z,956.18
2018-12-04T00:24:54.304Z,956.18
2018-12-04T00:25:54.245Z,956.26
2018-12-04T00:26:54.194Z,956.22
2018-12-04T00:27:54.136Z,956.30
2018-12-04T00:28:54.117Z,956.29
2018-12-04T00:29:54.033Z,956.20
2018-12-04T00:30:53.980Z,956.26
2018-12-04T00:31:53.929Z,956.18
2018-12-04T00:32:53.873Z,956.25
2018-12-04T00:33:53.849Z,956.19
2018-12-04T00:34:53.803Z,956.20
2018-12-04T00:35:53.715Z,956.19
2018-12-04T00:36:53.691Z,956.18
2018-12-04T00:37:53.611Z,956.17
2018-12-04T00:38:53.595Z,956.25
2018-12-04T00:39:53.504Z,956.17
2018-12-04T00:40:53.460Z,956.22
2018-12-04T00:41:53.390Z,956.27
2018-12-04T00:42:53.340Z,956.20
2018-12-04T00:43:53.320Z,956.18
2018-12-04T00:44:53.231Z,956.23
2018-12-04T00:45:53.183Z,956.26
2018-12-04T00:46:53.129Z,956.16
2018-12-04T00:47:53.102Z,956.20
2018-12-04T00:48:53.020Z,956.37
2018-12-04T00:49:52.987Z,956.36
2018-12-04T00:50:52.948Z,956.29
2018-12-04T00:51:52.867Z,956.32
2018-12-04T00:52:52.838Z,956.32
2018-12-04T00:53:52.759Z,956.33
2018-12-04T00:54:52.698Z,956.28
2018-12-04T00:55:52.645Z,956.37
2018-12-04T00:56:52.624Z,956.36
2018-12-04T00:57:52.568Z,956.28
2018-12-04T00:58:52.486Z,956.35
2018-12-04T00:59:52.436Z,956.39
2018-12-04T01:00:52.384Z,956.36
2018-12-04T01:01:52.357Z,956.45
2018-12-04T01:02:52.273Z,956.48
2018-12-04T01:03:52.220Z,956.43
2018-12-04T01:04:52.171Z,956.52
2018-12-04T01:05:52.112Z,956.46
2018-12-04T01:06:52.085Z,956.43
2018-12-04T01:07:52.012Z,956.47
2018-12-04T01:08:51.989Z,956.54
2018-12-04T01:09:51.933Z,956.43
2018-12-04T01:10:51.850Z,956.61
2018-12-04T01:11:51.827Z,956.57
2018-12-04T01:12:51.741Z,956.77
2018-12-04T01:13:51.689Z,956.64
2018-12-04T01:14:51.665Z,956.80
2018-12-04T01:15:51.582Z,956.70
2018-12-04T01:16:51.527Z,956.82
2018-12-04T01:17:51.504Z,956.75
2018-12-04T01:18:51.426Z,956.75
2018-12-04T01:19:51.372Z,956.71
2018-12-04T01:20:51.315Z,956.78
2018-12-04T01:21:51.261Z,956.80
2018-12-04T01:22:51.242Z,956.79
2018-12-04T01:23:51.193Z,956.77
2018-12-04T01:24:51.104Z,956.86
2018-12-04T01:25:51.047Z,956.97
2018-12-04T01:26:50.995Z,956.88
2018-12-04T01:27:50.975Z,956.84
2018-12-04T01:28:50.889Z,956.85
2018-12-04T01:29:50.834Z,956.84
2018-12-04T01:30:50.780Z,956.87
2018-12-04T01:31:50.727Z,956.89
2018-12-04T01:32:50.706Z,956.88
2018-12-04T01:33:50.625Z,956.88
2018-12-04T01:34:50.569Z,956.92
2018-12-04T01:35:50.545Z,956.88
2018-12-04T01:36:50.465Z,956.91
2018-12-04T01:37:50.407Z,956.87
2018-12-04T01:38:50.358Z,956.93
2018-12-04T01:39:50.301Z,956.89
2018-12-04T01:40:50.281Z,956.99
2018-12-04T01:41:50.194Z,956.97
2018-12-04T01:42:50.142Z,956.96
2018-12-04T01:43:50.086Z,956.96
2018-12-04T01:44:50.035Z,956.96
2018-12-04T01:45:50.005Z,957.07
2018-12-04T01:46:49.958Z,956.98
2018-12-04T01:47:49.873Z,957.02
2018-12-04T01:48:49.822Z,957.12
2018-12-04T01:49:49.768Z,956.99
2018-12-04T01:50:49.716Z,957.03
2018-12-04T01:51:49.693Z,957.05
2018-12-04T01:52:49.608Z,957.04
2018-12-04T01:53:49.554Z,957.09
2018-12-04T01:54:49.532Z,957.08
2018-12-04T01:55:49.459Z,957.15
2018-12-04T01:56:49.399Z,957.13
2018-12-04T01:57:49.343Z,957.12
2018-12-04T01:58:49.327Z,957.25
2018-12-04T01:59:49.237Z,957.16
2018-12-04T02:00:49.186Z,957.11
2018-12-04T02:01:49.127Z,957.10
2018-12-04T02:02:49.075Z,957.14
2018-12-04T02:03:49.060Z,957.18
2018-12-04T02:04:48.972Z,957.12
2018-12-04T02:05:48.917Z,957.13
2018-12-04T02:06:48.862Z,957.19
2018-12-04T02:07:48.809Z,957.21
2018-12-04T02:08:48.788Z,957.26
2018-12-04T02:09:48.704Z,957.20
2018-12-04T02:10:48.647Z,957.25
2018-12-04T02:11:48.596Z,957.16
2018-12-04T02:12:48.548Z,957.30
2018-12-04T02:13:48.527Z,957.27
2018-12-04T02:14:48.468Z,957.20
2018-12-04T02:15:48.382Z,957.27
2018-12-04T02:16:48.334Z,957.27
2018-12-04T02:17:48.277Z,957.36
2018-12-04T02:18:48.222Z,957.30
2018-12-04T02:19:48.199Z,957.38
2018-12-04T02:20:48.120Z,957.25
2018-12-04T02:21:48.064Z,957.41
2018-12-04T02:22:48.007Z,957.31
2018-12-04T02:23:47.956Z,957.28
2018-12-04T02:24:47.934Z,957.39
2018-12-04T02:25:47.850Z,957.36
2018-12-04T02:26:47.803Z,957.42
2018-12-04T02:27:47.743Z,957.53
2018-12-04T02:28:47.690Z,957.46
2018-12-04T02:29:47.678Z,957.53
2018-12-04T02:30:47.584Z,957.63
2018-12-04T02:31:47.528Z,957.47
2018-12-04T02:32:47.475Z,957.47
2018-12-04T02:33:47.423Z,957.49
2018-12-04T02:34:47.423Z,957.50
2018-12-04T02:35:47.316Z,957.53
2018-12-04T02:36:47.262Z,957.62
2018-12-04T02:37:47.212Z,957.54
2018-12-04T02:38:47.164Z,957.56
2018-12-04T02:39:47.143Z,957.72
2018-12-04T02:40:47.050Z,957.52
2018-12-04T02:41:46.997Z,957.63
2018-12-04T02:42:46.944Z,957.50
2018-12-04T02:43:46.891Z,957.48
2018-12-04T02:44:46.867Z,957.48
2018-12-04T02:45:46.813Z,957.48
2018-12-04T02:46:46.748Z,957.61
2018-12-04T02:47:46.683Z,957.56
2018-12-04T02:48:46.626Z,957.56
2018-12-04T02:49:46.573Z,957.78
2018-12-04T02:50:46.554Z,957.60
2018-12-04T02:51:46.479Z,957.49
2018-12-04T02:52:46.416Z,957.74
2018-12-04T02:53:46.357Z,957.72
2018-12-04T02:54:46.309Z,957.69
2018-12-04T02:55:46.283Z,957.83
2018-12-04T02:56:46.203Z,957.72
2018-12-04T02:57:46.152Z,957.74
2018-12-04T02:58:46.092Z,957.76
2018-12-04T02:59:46.076Z,957.76
2018-12-04T03:00:45.988Z,957.80
2018-12-04T03:01:45.962Z,957.76
2018-12-04T03:02:45.877Z,957.81
2018-12-04T03:03:45.823Z,957.85
2018-12-04T03:04:45.772Z,957.87
2018-12-04T03:05:45.716Z,957.92
2018-12-04T03:06:45.702Z,957.91
2018-12-04T03:07:45.615Z,957.96
2018-12-04T03:08:45.558Z,957.93
2018-12-04T03:09:45.507Z,957.83
2018-12-04T03:10:45.452Z,957.84
2018-12-04T03:11:45.446Z,958.00
2018-12-04T03:12:45.381Z,957.92
2018-12-04T03:13:45.291Z,957.94
2018-12-04T03:14:45.270Z,958.03
2018-12-04T03:15:45.213Z,957.96
2018-12-04T03:16:45.162Z,958.06
2018-12-04T03:17:45.076Z,958.00
2018-12-04T03:18:45.024Z,958.07
2018-12-04T03:19:44.979Z,958.04
2018-12-04T03:20:44.957Z,958.12
2018-12-04T03:21:44.863Z,958.20
2018-12-04T03:22:44.814Z,958.21
2018-12-04T03:23:44.758Z,958.15
2018-12-04T03:24:44.706Z,958.13
2018-12-04T03:25:44.680Z,958.13
2018-12-04T03:26:44.595Z,958.17
2018-12-04T03:27:44.555Z,958.20
2018-12-04T03:28:44.489Z,958.15
2018-12-04T03:29:44.477Z,958.20
2018-12-04T03:30:44.386Z,958.23
2018-12-04T03:31:44.361Z,958.25
2018-12-04T03:32:44.284Z,958.21
2018-12-04T03:33:44.221Z,958.17
2018-12-04T03:34:44.169Z,958.26
2018-12-04T03:35:44.121Z,958.30
2018-12-04T03:36:44.095Z,958.27
2018-12-04T03:37:44.010Z,958.28
2018-12-04T03:38:43.954Z,958.25
2018-12-04T03:39:43.901Z,958.32
2018-12-04T03:40:43.854Z,958.25
2018-12-04T03:41:43.827Z,958.34
2018-12-04T03:42:43.744Z,958.36
2018-12-04T03:43:43.707Z,958.41
2018-12-04T03:44:43.636Z,958.48
2018-12-04T03:45:43.616Z,958.52
2018-12-04T03:46:43.561Z,958.55
2018-12-04T03:47:43.476Z,958.59
2018-12-04T03:48:43.423Z,958.67
2018-12-04T03:49:43.375Z,958.74
2018-12-04T03:50:43.313Z,958.72
2018-12-04T03:51:43.292Z,958.70
2018-12-04T03:52:43.215Z,958.69
2018-12-04T03:53:43.205Z,958.71
2018-12-04T03:54:43.106Z,958.72
2018-12-04T03:55:43.047Z,958.76
2018-12-04T03:56:42.992Z,958.80
2018-12-04T03:57:42.940Z,958.76
2018-12-04T03:58:42.924Z,958.85
2018-12-04T03:59:42.843Z,958.81
2018-12-04T04:00:42.784Z,958.82
2018-12-04T04:01:42.728Z,958.86
2018-12-04T04:02:42.674Z,958.88
2018-12-04T04:03:42.663Z,958.88
2018-12-04T04:04:42.567Z,958.90
2018-12-04T04:05:42.517Z,958.91
2018-12-04T04:06:42.495Z,958.98
2018-12-04T04:07:42.408Z,959.05
2018-12-04T04:08:42.358Z,959.08
2018-12-04T04:09:42.330Z,959.18
2018-12-04T04:10:42.248Z,959.17
2018-12-04T04:11:42.193Z,959.21
2018-12-04T04:12:42.161Z,959.27
2018-12-04T04:13:42.087Z,959.29
2018-12-04T04:14:42.066Z,959.31
2018-12-04T04:15:41.978Z,959.36
2018-12-04T04:16:41.928Z,959.32
2018-12-04T04:17:41.872Z,959.35
2018-12-04T04:18:41.821Z,959.35
2018-12-04T04:19:41.799Z,959.34
2018-12-04T04:20:41.743Z,959.47
2018-12-04T04:21:41.665Z,959.49
2018-12-04T04:22:41.602Z,959.46
2018-12-04T04:23:41.551Z,959.47
2018-12-04T04:24:41.496Z,959.55
2018-12-04T04:25:41.479Z,959.58
2018-12-04T04:26:41.391Z,959.62
2018-12-04T04:27:41.375Z,959.58
2018-12-04T04:28:41.281Z,959.66
2018-12-04T04:29:41.234Z,959.72
2018-12-04T04:30:41.174Z,959.79
2018-12-04T04:31:41.125Z,959.81
2018-12-04T04:32:41.235Z,959.88
2018-12-04T04:33:41.017Z,959.92
2018-12-04T04:34:40.968Z,959.97
2018-12-04T04:35:40.912Z,959.99
2018-12-04T04:36:40.855Z,959.98
2018-12-04T04:37:40.831Z,960.06
2018-12-04T04:38:40.750Z,960.12
2018-12-04T04:39:40.692Z,960.15
2018-12-04T04:40:40.677Z,960.17
2018-12-04T04:41:40.584Z,960.20
2018-12-04T04:42:40.533Z,960.22
2018-12-04T04:43:40.482Z,960.29
2018-12-04T04:44:40.442Z,960.28
2018-12-04T04:45:40.410Z,960.31
2018-12-04T04:46:40.321Z,960.37
2018-12-04T04:47:40.269Z,960.35
2018-12-04T04:48:40.207Z,960.40
2018-12-04T04:49:40.162Z,960.45
2018-12-04T04:50:40.131Z,960.51
2018-12-04T04:51:40.072Z,960.57
2018-12-04T04:52:39.995Z,960.52
2018-12-04T04:53:39.940Z,960.55
2018-12-04T04:54:39.889Z,960.56
2018-12-04T04:55:39.842Z,960.63
2018-12-04T04:56:39.801Z,960.64
2018-12-04T04:57:39.728Z,960.65
2018-12-04T04:58:39.672Z,960.69
2018-12-04T04:59:39.618Z,960.65
2018-12-04T05:00:39.604Z,960.73
2018-12-04T05:01:39.511Z,960.70
2018-12-04T05:02:39.465Z,960.70
2018-12-04T05:03:39.400Z,960.72
2018-12-04T05:04:39.347Z,960.75
2018-12-04T05:05:39.328Z,960.81
2018-12-04T05:06:39.274Z,960.81
2018-12-04T05:07:39.185Z,960.82
2018-12-04T05:08:39.132Z,960.86
2018-12-04T05:09:39.079Z,960.84
2018-12-04T05:10:39.025Z,960.90
2018-12-04T05:11:39.011Z,960.85
2018-12-04T05:12:38.916Z,960.88
2018-12-04T05:13:38.860Z,960.91
2018-12-04T05:14:38.809Z,960.92
2018-12-04T05:15:38.752Z,960.97
2018-12-04T05:16:38.745Z,960.99
2018-12-04T05:17:38.648Z,961.00
2018-12-04T05:18:38.590Z,961.03
2018-12-04T05:19:38.534Z,961.01
2018-12-04T05:20:38.483Z,961.07
2018-12-04T05:21:38.466Z,961.07
2018-12-04T05:22:38.372Z,961.08
2018-12-04T05:23:38.320Z,961.09
2018-12-04T05:24:38.266Z,961.13
2018-12-04T05:25:38.211Z,961.14
2018-12-04T05:26:38.189Z,961.18
2018-12-04T05:27:38.105Z,961.30
2018-12-04T05:28:38.069Z,961.32
2018-12-04T05:29:37.995Z,961.36
2018-12-04T05:30:37.973Z,961.38
2018-12-04T05:31:37.885Z,961.40
2018-12-04T05:32:37.832Z,961.43
2018-12-04T05:33:37.778Z,961.45
2018-12-04T05:34:37.745Z,961.43
2018-12-04T05:35:37.669Z,961.54
2018-12-04T05:36:37.616Z,961.53
2018-12-04T05:37:37.593Z,961.54
2018-12-04T05:38:37.508Z,961.55
2018-12-04T05:39:37.451Z,961.55
2018-12-04T05:40:37.396Z,961.59
2018-12-04T05:41:37.343Z,961.63
2018-12-04T05:42:37.322Z,961.58
2018-12-04T05:43:37.237Z,961.59
2018-12-04T05:44:37.191Z,961.61
2018-12-04T05:45:37.125Z,961.64
2018-12-04T05:46:37.103Z,961.70
2018-12-04T05:47:37.019Z,961.73
2018-12-04T05:48:36.962Z,961.73
2018-12-04T05:49:36.909Z,961.71
2018-12-04T05:50:36.852Z,961.73
2018-12-04T05:51:36.830Z,961.72
2018-12-04T05:52:36.748Z,961.74
2018-12-04T05:53:36.690Z,961.75
2018-12-04T05:54:36.667Z,961.77
2018-12-04T05:55:36.583Z,961.82
2018-12-04T05:56:36.532Z,961.85
2018-12-04T05:57:36.496Z,961.87
2018-12-04T05:58:36.417Z,961.95
2018-12-04T05:59:36.362Z,961.97
2018-12-04T06:00:36.309Z,961.99
2018-12-04T06:01:36.258Z,962.05
2018-12-04T06:02:36.233Z,962.03
2018-12-04T06:03:36.147Z,962.07
2018-12-04T06:04:36.090Z,962.08
2018-12-04T06:05:36.059Z,962.12
2018-12-04T06:06:35.981Z,962.14
2018-12-04T06:07:35.929Z,962.13
2018-12-04T06:08:35.883Z,962.18
2018-12-04T06:09:35.856Z,962.18
2018-12-04T06:10:35.765Z,962.19
2018-12-04T06:11:35.709Z,962.12
2018-12-04T06:12:35.656Z,962.13
2018-12-04T06:13:35.625Z,962.16
2018-12-04T06:14:35.588Z,962.14
2018-12-04T06:15:35.496Z,962.16
2018-12-04T06:16:35.438Z,962.24
2018-12-04T06:17:35.381Z,962.26
2018-12-04T06:18:35.325Z,962.26
2018-12-04T06:19:35.314Z,962.28
2018-12-04T06:20:35.221Z,962.33
2018-12-04T06:21:35.165Z,962.28
2018-12-04T06:22:35.107Z,962.34
2018-12-04T06:23:35.054Z,962.35
2018-12-04T06:24:35.033Z,962.40
2018-12-04T06:25:34.947Z,962.40
2018-12-04T06:26:34.890Z,962.44
2018-12-04T06:27:34.840Z,962.45
2018-12-04T06:28:34.783Z,962.52
2018-12-04T06:29:34.759Z,962.52
2018-12-04T06:30:34.703Z,962.56
2018-12-04T06:31:34.623Z,962.59
2018-12-04T06:32:34.561Z,962.65
2018-12-04T06:33:34.507Z,962.67
2018-12-04T06:34:34.453Z,962.69
2018-12-04T06:35:34.431Z,962.71
2018-12-04T06:36:34.342Z,962.80
2018-12-04T06:37:34.291Z,962.81
2018-12-04T06:38:34.235Z,962.85
2018-12-04T06:39:34.180Z,962.89
2018-12-04T06:40:34.155Z,962.92
2018-12-04T06:41:34.095Z,962.93
2018-12-04T06:42:34.015Z,962.92
2018-12-04T06:43:33.962Z,963.02
2018-12-04T06:44:33.905Z,963.05
2018-12-04T06:45:33.854Z,963.07
2018-12-04T06:46:33.826Z,963.11
2018-12-04T06:47:33.743Z,963.14
2018-12-04T06:48:33.687Z,963.11
2018-12-04T06:49:33.634Z,963.16
2018-12-04T06:50:33.581Z,963.21
2018-12-04T06:51:33.548Z,963.29
2018-12-04T06:52:33.471Z,963.30
2018-12-04T06:53:33.415Z,963.33
2018-12-04T06:54:33.360Z,963.34
2018-12-04T06:55:33.306Z,963.31
2018-12-04T06:56:33.275Z,963.38
2018-12-04T06:57:33.196Z,963.43
2018-12-04T06:58:33.141Z,963.45
2018-12-04T06:59:33.088Z,963.42
2018-12-04T07:00:33.033Z,963.45
2018-12-04T07:01:33.003Z,963.47
2018-12-04T07:02:32.925Z,963.50
2018-12-04T07:03:32.874Z,963.54
2018-12-04T07:04:32.813Z,963.55
2018-12-04T07:05:32.793Z,963.63
2018-12-04T07:06:32.704Z,963.66
2018-12-04T07:07:32.681Z,963.66
2018-12-04T07:08:32.599Z,963.72
2018-12-04T07:09:32.541Z,963.75
2018-12-04T07:10:32.501Z,963.71
2018-12-04T07:11:32.465Z,963.78
2018-12-04T07:12:32.384Z,963.78
2018-12-04T07:13:32.354Z,963.79
2018-12-04T07:14:32.266Z,963.81
2018-12-04T07:15:32.213Z,963.80
2018-12-04T07:16:32.190Z,963.79
2018-12-04T07:17:32.104Z,963.78
2018-12-04T07:18:32.083Z,963.84
2018-12-04T07:19:31.993Z,963.84
2018-12-04T07:20:31.940Z,963.86
2018-12-04T07:21:31.919Z,963.83
2018-12-04T07:22:31.830Z,963.80
2018-12-04T07:23:31.779Z,963.84
2018-12-04T07:24:31.724Z,963.87
2018-12-04T07:25:31.666Z,963.91
2018-12-04T07:26:31.655Z,963.93
2018-12-04T07:27:31.561Z,963.94
2018-12-04T07:28:31.503Z,964.00
2018-12-04T07:29:31.449Z,964.00
2018-12-04T07:30:31.393Z,964.02
2018-12-04T07:31:31.378Z,964.07
2018-12-04T07:32:31.283Z,964.09
2018-12-04T07:33:31.227Z,964.11
2018-12-04T07:34:31.172Z,964.14
2018-12-04T07:35:31.116Z,964.17
2018-12-04T07:36:31.112Z,964.20
2018-12-04T07:37:31.008Z,964.22
2018-12-04T07:38:30.955Z,964.30
2018-12-04T07:39:30.898Z,964.37
2018-12-04T07:40:30.844Z,964.42
2018-12-04T07:41:30.821Z,964.43
2018-12-04T07:42:30.736Z,964.41
2018-12-04T07:43:30.682Z,964.49
2018-12-04T07:44:30.624Z,964.47
2018-12-04T07:45:30.573Z,964.53
2018-12-04T07:46:30.546Z,964.56
2018-12-04T07:47:30.464Z,964.54
2018-12-04T07:48:30.442Z,964.62
2018-12-04T07:49:30.351Z,964.64
2018-12-04T07:50:30.296Z,964.66
2018-12-04T07:51:30.242Z,964.72
2018-12-04T07:52:30.187Z,964.75
2018-12-04T07:53:30.163Z,964.78
2018-12-04T07:54:30.077Z,964.75
2018-12-04T07:55:30.022Z,964.75
2018-12-04T07:56:29.968Z,964.79
2018-12-04T07:57:29.912Z,964.80
2018-12-04T07:58:29.890Z,964.83
2018-12-04T07:59:29.834Z,964.85
2018-12-04T08:00:29.749Z,964.92
2018-12-04T08:01:29.693Z,964.99
2018-12-04T08:02:29.639Z,964.99
2018-12-04T08:03:29.589Z,964.99
2018-12-04T08:04:29.565Z,965.02
2018-12-04T08:05:29.481Z,965.07
2018-12-04T08:06:29.455Z,965.07
2018-12-04T08:07:29.365Z,965.09
2018-12-04T08:08:29.312Z,965.06
2018-12-04T08:09:29.255Z,965.06
2018-12-04T08:10:29.229Z,965.06
2018-12-04T08:11:29.147Z,965.10
2018-12-04T08:12:29.091Z,965.12
2018-12-04T08:13:29.060Z,965.13
2018-12-04T08:14:28.980Z,965.17
2018-12-04T08:15:28.926Z,965.19
2018-12-04T08:16:28.969Z,965.24
2018-12-04T08:17:28.817Z,965.27
2018-12-04T08:18:29.047Z,965.32
2018-12-04T08:19:28.706Z,965.32
2018-12-04T08:20:28.652Z,965.35
2018-12-04T08:21:28.599Z,965.36
2018-12-04T08:22:28.542Z,965.37
2018-12-04T08:23:28.536Z,965.42
2018-12-04T08:24:28.436Z,965.41
2018-12-04T08:25:28.379Z,965.46
2018-12-04T08:26:28.325Z,965.51
2018-12-04T08:27:28.269Z,965.51
2018-12-04T08:28:28.261Z,965.50
2018-12-04T08:29:28.159Z,965.53
2018-12-04T08:30:28.107Z,965.62
2018-12-04T08:31:28.051Z,965.62
2018-12-04T08:32:27.999Z,965.69
2018-12-04T08:33:27.977Z,966.14
2018-12-04T08:34:27.889Z,966.06
2018-12-04T08:35:27.835Z,965.77
2018-12-04T08:36:27.785Z,965.84
2018-12-04T08:37:27.737Z,966.33
2018-12-04T08:38:27.710Z,966.24
2018-12-04T08:39:27.626Z,965.89
2018-12-04T08:40:27.572Z,965.85
2018-12-04T08:41:27.526Z,965.99
2018-12-04T08:42:27.471Z,965.99
2018-12-04T08:43:27.453Z,965.94
2018-12-04T08:44:27.370Z,965.90
2018-12-04T08:45:27.354Z,965.92
2018-12-04T08:46:27.268Z,965.92
2018-12-04T08:47:27.218Z,965.93
2018-12-04T08:48:27.207Z,965.94
2018-12-04T08:49:27.114Z,965.99
2018-12-04T08:50:27.102Z,965.97
2018-12-04T08:51:27.014Z,966.00
2018-12-04T08:52:26.963Z,966.05
2018-12-04T08:53:26.912Z,966.10
2018-12-04T08:54:26.860Z,966.08
2018-12-04T08:55:26.841Z,966.13
2018-12-04T08:56:26.757Z,966.18
2018-12-04T08:57:26.705Z,966.21
2018-12-04T08:58:26.656Z,966.29
2018-12-04T08:59:26.606Z,966.31
2018-12-04T09:00:26.582Z,966.34
2018-12-04T09:01:26.497Z,966.48
2018-12-04T09:02:26.452Z,966.34
2018-12-04T09:03:26.393Z,966.42
2018-12-04T09:04:26.391Z,966.45
2018-12-04T09:05:26.290Z,966.47
2018-12-04T09:06:26.237Z,966.54
2018-12-04T09:07:26.186Z,966.55
2018-12-04T09:08:26.130Z,966.51
2018-12-04T09:09:26.109Z,966.55
2018-12-04T09:10:26.049Z,966.51
2018-12-04T09:11:25.974Z,966.52
2018-12-04T09:12:25.925Z,966.57
2018-12-04T09:13:25.872Z,966.65
2018-12-04T09:14:25.819Z,966.71
2018-12-04T09:15:25.788Z,966.74
2018-12-04T09:16:25.711Z,966.65
2018-12-04T09:17:25.656Z,966.71
2018-12-04T09:18:25.655Z,966.71
2018-12-04T09:19:25.623Z,966.71
2018-12-04T09:20:25.572Z,966.73
2018-12-04T09:21:25.512Z,966.75
2018-12-04T09:22:25.449Z,966.77
2018-12-04T09:23:25.380Z,966.82
2018-12-04T09:24:30.514Z,966.79
2018-12-04T09:25:25.248Z,966.80
2018-12-04T09:26:25.201Z,966.82
2018-12-04T09:27:25.165Z,966.80
2018-12-04T09:28:25.115Z,966.82
2018-12-04T09:29:25.040Z,966.80
2018-12-04T09:30:25.011Z,966.78
2018-12-04T09:31:24.915Z,966.83
2018-12-04T09:32:24.860Z,966.83
2018-12-04T09:33:24.805Z,966.84
2018-12-04T09:34:29.798Z,966.85
2018-12-04T09:35:24.708Z,966.86
2018-12-04T09:36:24.669Z,966.88
2018-12-04T09:37:24.595Z,966.87
2018-12-04T09:38:24.536Z,966.87
2018-12-04T09:39:24.514Z,966.90
2018-12-04T09:40:24.431Z,966.93
2018-12-04T09:41:24.376Z,966.95
2018-12-04T09:42:24.322Z,967.00
2018-12-04T09:43:24.268Z,967.00
2018-12-04T09:44:24.245Z,967.04
2018-12-04T09:45:24.160Z,967.12
2018-12-04T09:46:24.106Z,967.22
2018-12-04T09:47:24.126Z,967.20
2018-12-04T09:48:24.004Z,967.28
2018-12-04T09:49:23.982Z,967.31
2018-12-04T09:50:23.896Z,967.26
2018-12-04T09:51:23.840Z,967.15
2018-12-04T09:52:23.787Z,967.16
2018-12-04T09:53:25.331Z,967.40
2018-12-04T09:54:23.714Z,967.24
2018-12-04T09:55:23.663Z,967.22
2018-12-04T09:56:23.609Z,967.24
2018-12-04T09:57:23.527Z,967.23
2018-12-04T09:58:23.474Z,967.32
2018-12-04T09:59:23.452Z,967.34
2018-12-04T10:00:23.399Z,967.33
2018-12-04T10:01:23.321Z,967.34
2018-12-04T10:02:23.265Z,967.34
2018-12-04T10:03:23.211Z,967.33
2018-12-04T10:04:23.160Z,967.30
2018-12-04T10:05:23.140Z,967.35
2018-12-04T10:06:23.090Z,967.38
2018-12-04T10:07:23.053Z,967.54
2018-12-04T10:08:22.951Z,967.43
2018-12-04T10:09:22.899Z,967.48
2018-12-04T10:10:22.846Z,967.51
2018-12-04T10:11:22.797Z,967.50
2018-12-04T10:12:22.781Z,967.52
2018-12-04T10:13:22.689Z,967.52
2018-12-04T10:14:22.636Z,967.50
2018-12-04T10:15:22.588Z,967.50
2018-12-04T10:16:22.532Z,967.52
2018-12-04T10:17:22.505Z,967.50
2018-12-04T10:18:22.460Z,967.50
2018-12-04T10:19:22.374Z,967.53
2018-12-04T10:20:22.323Z,967.57
2018-12-04T10:21:22.303Z,967.57
2018-12-04T10:22:22.214Z,967.59
2018-12-04T10:23:22.162Z,967.60
2018-12-04T10:24:22.116Z,967.64
2018-12-04T10:25:22.068Z,967.62
2018-12-04T10:26:22.037Z,967.62
2018-12-04T10:27:21.985Z,967.67
2018-12-04T10:28:21.906Z,967.66
2018-12-04T10:29:21.848Z,967.71
2018-12-04T10:30:21.796Z,967.77
2018-12-04T10:31:21.740Z,967.81
2018-12-04T10:32:21.724Z,967.84
2018-12-04T10:33:21.637Z,967.83
2018-12-04T10:34:21.583Z,967.88
2018-12-04T10:35:21.530Z,967.91
2018-12-04T10:36:21.481Z,967.93
2018-12-04T10:37:21.473Z,967.91
2018-12-04T10:38:21.369Z,967.87
2018-12-04T10:39:21.317Z,967.90
2018-12-04T10:40:21.267Z,967.91
2018-12-04T10:41:21.218Z,967.92
2018-12-04T10:42:21.202Z,967.92
2018-12-04T10:43:21.110Z,967.98
2018-12-04T10:44:21.052Z,967.95
2018-12-04T10:45:21.001Z,967.91
2018-12-04T10:46:20.948Z,967.98
2018-12-04T10:47:20.927Z,968.02
2018-12-04T10:48:20.841Z,967.99
2018-12-04T10:49:20.821Z,967.99
2018-12-04T10:50:20.737Z,967.97
2018-12-04T10:51:20.682Z,968.02
2018-12-04T10:52:20.633Z,968.03
2018-12-04T10:53:20.573Z,968.03
2018-12-04T10:54:20.548Z,968.02
2018-12-04T10:55:20.501Z,968.05
2018-12-04T10:56:20.411Z,968.05
2018-12-04T10:57:20.361Z,968.03
2018-12-04T10:58:20.305Z,968.04
2018-12-04T10:59:20.253Z,968.10
2018-12-04T11:00:20.235Z,968.13
2018-12-04T11:01:20.150Z,968.22
2018-12-04T11:02:20.124Z,968.18
2018-12-04T11:03:20.038Z,968.21
2018-12-04T11:04:19.987Z,968.22
2018-12-04T11:05:19.933Z,968.24
2018-12-04T11:06:19.876Z,968.30
2018-12-04T11:07:19.875Z,968.32
2018-12-04T11:08:19.774Z,968.33
2018-12-04T11:09:19.719Z,968.33
2018-12-04T11:10:19.673Z,968.36
2018-12-04T11:11:19.609Z,968.37
2018-12-04T11:12:19.612Z,968.38
2018-12-04T11:13:19.505Z,968.42
2018-12-04T11:14:19.450Z,968.39
2018-12-04T11:15:19.397Z,968.38
2018-12-04T11:16:19.343Z,968.35
2018-12-04T11:17:19.321Z,968.34
2018-12-04T11:18:19.237Z,968.34
2018-12-04T11:19:19.183Z,968.37
2018-12-04T11:20:19.179Z,968.40
2018-12-04T11:21:19.074Z,968.41
2018-12-04T11:22:19.026Z,968.39
2018-12-04T11:23:18.969Z,968.36
2018-12-04T11:24:18.921Z,968.42
2018-12-04T11:25:18.903Z,968.44
2018-12-04T11:26:18.817Z,968.47
2018-12-04T11:27:18.763Z,968.54
2018-12-04T11:28:18.704Z,968.55
2018-12-04T11:29:18.650Z,968.59
2018-12-04T11:30:18.621Z,968.51
2018-12-04T11:31:18.544Z,968.58
2018-12-04T11:32:18.516Z,968.57
2018-12-04T11:33:18.443Z,968.59
2018-12-04T11:34:18.385Z,968.55
2018-12-04T11:35:18.340Z,968.59
2018-12-04T11:36:18.314Z,968.64
2018-12-04T11:37:18.230Z,968.60
2018-12-04T11:38:18.175Z,968.60
2018-12-04T11:39:18.125Z,968.65
2018-12-04T11:40:18.076Z,968.61
2018-12-04T11:41:18.049Z,968.70
2018-12-04T11:42:17.961Z,968.69
2018-12-04T11:43:17.942Z,968.66
2018-12-04T11:44:17.859Z,968.67
2018-12-04T11:45:17.808Z,968.68
2018-12-04T11:46:17.755Z,968.68
2018-12-04T11:47:17.700Z,968.69
2018-12-04T11:48:17.681Z,968.69
2018-12-04T11:49:17.597Z,968.72
2018-12-04T11:50:17.543Z,968.75
2018-12-04T11:51:17.489Z,968.71
2018-12-04T11:52:17.437Z,968.77
2018-12-04T11:53:17.419Z,968.80
2018-12-04T11:54:17.331Z,968.75
2018-12-04T11:55:17.280Z,968.75
2018-12-04T11:56:17.223Z,968.74
2018-12-04T11:57:17.171Z,968.77
2018-12-04T11:58:17.152Z,968.76
2018-12-04T11:59:17.104Z,968.77
2018-12-04T12:00:17.011Z,968.78
2018-12-04T12:01:16.960Z,968.77
2018-12-04T12:02:16.912Z,968.79
2018-12-04T12:03:16.884Z,968.85
2018-12-04T12:04:16.805Z,968.88
2018-12-04T12:05:16.752Z,968.93
2018-12-04T12:06:16.729Z,968.94
2018-12-04T12:07:20.524Z,968.95
2018-12-04T12:08:16.585Z,968.96
2018-12-04T12:09:16.653Z,968.96
2018-12-04T12:10:16.481Z,969.02
2018-12-04T12:11:16.433Z,969.00
2018-12-04T12:12:16.372Z,969.02
2018-12-04T12:13:16.321Z,969.05
2018-12-04T12:14:16.315Z,969.09
2018-12-04T12:15:18.295Z,969.09
2018-12-04T12:16:16.161Z,969.08
2018-12-04T12:17:16.112Z,969.13
2018-12-04T12:18:16.052Z,969.16
2018-12-04T12:19:16.033Z,969.21
2018-12-04T12:20:15.944Z,969.22
2018-12-04T12:21:15.895Z,969.21
2018-12-04T12:22:15.839Z,969.21
2018-12-04T12:23:15.786Z,969.25
2018-12-04T12:24:15.764Z,969.25
2018-12-04T12:25:15.708Z,969.23
2018-12-04T12:26:15.623Z,969.26
2018-12-04T12:27:15.570Z,969.29
2018-12-04T12:28:15.520Z,969.32